Austin, TX (78746)

17:40 CST le 13 février 2016 (GMT -0600)
Camelot | | Change Station
CLOSE
Current Station
Stations météorologiques personnelles
Location: Austin, TX
Altitude: 925 ft
Stations météo à proximité

Alt. 925 ft 30.29 °N, 97.83 °W | Updated 23 seconds ago

Ciel dégagé
Ciel dégagé
69.5 ° F
Paraît 69.5 ° F
N
0.0
Vent Variable Vent de SO
Gusts 6.0 mph

Aujourd'hui
Haut(e) -- | Bas -- ° F
--% Risque de précip.
Hier
Haut(e) -- | Bas -- ° F
Precip. -- pouce
Pression 30.17 pouce
Visibilité 10.0 Miles terrestres
Nuages Peu 4300 ft
Point de rosée 55 ° F
Humidité 61%
Précipitations 0.00 pouce
Profondeur de la couche neigeuse Non disponible.
7:13 AM 6:17 PM
Lune montante, 35% visible
METAR KATT 132251Z AUTO 15010G17KT 10SM FEW043 22/12 A3018 RMK AO2 SLP214 T02220117
Pression 30.17 pouce
Visibilité 10.0 Miles terrestres
Nuages Peu 4300 ft
Point de rosée 55 ° F
Humidité 61%
Précipitations 0.00 pouce
Profondeur de la couche neigeuse Non disponible.
7:13 AM 6:17 PM
Lune montante, 35% visible
METAR KATT 132251Z AUTO 15010G17KT 10SM FEW043 22/12 A3018 RMK AO2 SLP214 T02220117

10-Day Weather Forecast

Almanac

Astronomie

Feb. 13, 2016 Lever Coucher
Temps réel
Crépuscule civil
Crépuscule nautique
Crépuscule astronomique
Lune
Durée de lumière visible
Longueur du jour
Tomorrow will be .
, % of the Moon is Illuminated

Extrêmes aujourd'hui

State Highs State Lows

Community

WunderPhotos

Upload Photos

1,892,701 Photos téléchargées !

WunderBlog® & News

Nearby

Qualité de l'air

  Qualité de l'air Indice de la qualité de l'air Polluant
Not available.

Épaisseur de neige

Station Depth Altitude

Activité sismique

Ville Distance Mag. Time & Date
Minimum magnitude displayed is 2.5.

Températures des eaux côtières

Lieu Température

Stations

Stations météo à proximité

Emplacement de la station Température Refroidissement éolien Point de rosée Humidité Vent Precip. Alt. Mise à jour Type
                   

Watches & Warnings

There are currently no watches in effect.